Siping, China
Current Conditions -  °F | °C
As of 4:00 PM on Sunday 26 Oct 2014 (Local Time) from ZYCC Reporting Station
Scattered Clouds Scattered Clouds  
Wind Chill: 33°   Ceiling: Unl
Heat Index: 39°   Visibility: 6mi
Dew Point: 12°   Wind: 9mph
Humidity: 33%   Direction: 310°NW
Pressure: 30.21"   Gusts: NA
Location:  43.17°N, 124.33°E
Report Text: ZYCC 260800Z 31004MPS 9999 SCT026 04/M11 Q1023 NOSIG
Loading
Personal Weather Stations






























Interactive Weather Map New forecast layout! Learn more

10-Day Weather Forecast

Advertisements
Track Severe Weather on mobile